Sendai Airport Sendai JP
ICAO: RJSS
IATA:
Category: Medium
Scheduled Services:

Elevation: 15 ft
TransAlt. 14000 ft.

Airport Communications:
APP:120.4
ATIS:126.45
DEP:120
GND:121.7
TCA:121.025
TWR:118.7

RJSS Zoom In..

If you have problems with the map follow the link
https://www.worldairports.se/pages/airport.php?
ICAO=RJSS

Runways:

(A) RW 09 length 9843 ft width 148 ft
---- / hdg 91

(B) RW 12 length 3937 ft width 148 ft
---- / hdg 125

(C) RW 27 length 9843 ft width 148 ft
ILS 111.70 / hdg 271

(D) RW 30 length 3937 ft width 148 ft
---- / hdg 305

Location; RJSS
Day. 17 / Time. 02.00 Zulu
* QNH: 1006
* Temperature: 08° c. 46.4°f.
* Wind from: VRB° Speed 01 kn.
Dewpoint: 01° c.
Visibility: 10 km or more.
Clouds: Few 3000 ft.
Clouds: Broken /00 ft.

RJSS 170200Z VRB01KT 9999 FEW030 BKN/// 08/01 Q1006


Wind From VRB°
Speed 01 kn.

 
 
jpsmedia.com for Web Design worldairports.se 2018   terms of use